sensor_id;sensor_type;location;lat;lon;timestamp;temperature;humidity
23100;DHT22;53791;50.696;4.396;2023-04-06T00:01:47;8.10;99.90
23100;DHT22;53791;50.696;4.396;2023-04-06T00:04:14;8.10;99.90
23100;DHT22;53791;50.696;4.396;2023-04-06T00:06:45;8.00;99.90
23100;DHT22;53791;50.696;4.396;2023-04-06T00:09:15;7.90;99.90
23100;DHT22;53791;50.696;4.396;2023-04-06T00:11:50;7.90;99.90
23100;DHT22;53791;50.696;4.396;2023-04-06T00:14:18;7.90;99.90
23100;DHT22;53791;50.696;4.396;2023-04-06T00:16:45;7.80;99.90
23100;DHT22;53791;50.696;4.396;2023-04-06T00:19:13;7.80;99.90
23100;DHT22;53791;50.696;4.396;2023-04-06T00:21:40;7.80;99.90
23100;DHT22;53791;50.696;4.396;2023-04-06T00:24:08;7.70;99.90
23100;DHT22;53791;50.696;4.396;2023-04-06T00:26:35;7.60;99.90
23100;DHT22;53791;50.696;4.396;2023-04-06T00:29:03;7.50;99.90
23100;DHT22;53791;50.696;4.396;2023-04-06T00:31:30;7.60;99.90
23100;DHT22;53791;50.696;4.396;2023-04-06T00:33:58;7.50;99.90
23100;DHT22;53791;50.696;4.396;2023-04-06T00:36:33;7.60;99.90
23100;DHT22;53791;50.696;4.396;2023-04-06T00:38:57;7.60;99.90
23100;DHT22;53791;50.696;4.396;2023-04-06T00:41:25;7.60;99.90
23100;DHT22;53791;50.696;4.396;2023-04-06T00:43:55;7.60;99.90
23100;DHT22;53791;50.696;4.396;2023-04-06T00:46:23;7.60;99.90
23100;DHT22;53791;50.696;4.396;2023-04-06T00:48:51;7.60;99.90
23100;DHT22;53791;50.696;4.396;2023-04-06T00:51:18;7.70;99.90
23100;DHT22;53791;50.696;4.396;2023-04-06T00:53:46;7.70;99.90
23100;DHT22;53791;50.696;4.396;2023-04-06T00:56:14;7.80;99.90
23100;DHT22;53791;50.696;4.396;2023-04-06T00:58:42;7.80;99.90
23100;DHT22;53791;50.696;4.396;2023-04-06T01:01:09;7.70;99.90
23100;DHT22;53791;50.696;4.396;2023-04-06T01:03:37;7.70;99.90
23100;DHT22;53791;50.696;4.396;2023-04-06T01:06:05;7.60;99.90
23100;DHT22;53791;50.696;4.396;2023-04-06T01:08:32;7.60;99.90
23100;DHT22;53791;50.696;4.396;2023-04-06T01:11:00;7.60;99.90
23100;DHT22;53791;50.696;4.396;2023-04-06T01:13:28;7.60;99.90
23100;DHT22;53791;50.696;4.396;2023-04-06T01:15:56;7.60;99.90
23100;DHT22;53791;50.696;4.396;2023-04-06T01:18:27;7.60;99.90
23100;DHT22;53791;50.696;4.396;2023-04-06T01:20:55;7.60;99.90
23100;DHT22;53791;50.696;4.396;2023-04-06T01:23:22;7.60;99.90
23100;DHT22;53791;50.696;4.396;2023-04-06T01:25:50;7.60;99.90
23100;DHT22;53791;50.696;4.396;2023-04-06T01:28:17;7.50;99.90
23100;DHT22;53791;50.696;4.396;2023-04-06T01:30:45;7.40;99.90
23100;DHT22;53791;50.696;4.396;2023-04-06T01:33:12;7.40;99.90
23100;DHT22;53791;50.696;4.396;2023-04-06T01:35:40;7.40;99.90
23100;DHT22;53791;50.696;4.396;2023-04-06T01:38:07;7.30;99.90
23100;DHT22;53791;50.696;4.396;2023-04-06T01:40:35;7.40;99.90
23100;DHT22;53791;50.696;4.396;2023-04-06T01:43:03;7.50;99.90
23100;DHT22;53791;50.696;4.396;2023-04-06T01:45:30;7.40;99.90
23100;DHT22;53791;50.696;4.396;2023-04-06T01:47:58;7.30;99.90
23100;DHT22;53791;50.696;4.396;2023-04-06T01:50:25;7.30;99.90
23100;DHT22;53791;50.696;4.396;2023-04-06T01:52:53;7.20;99.90
23100;DHT22;53791;50.696;4.396;2023-04-06T01:55:21;7.20;99.90
23100;DHT22;53791;50.696;4.396;2023-04-06T01:57:49;7.20;99.90
23100;DHT22;53791;50.696;4.396;2023-04-06T02:00:16;7.10;99.90
23100;DHT22;53791;50.696;4.396;2023-04-06T02:02:44;7.10;99.90
23100;DHT22;53791;50.696;4.396;2023-04-06T02:05:12;7.10;99.90
23100;DHT22;53791;50.696;4.396;2023-04-06T02:07:39;7.00;99.90
23100;DHT22;53791;50.696;4.396;2023-04-06T02:10:12;7.00;99.90
23100;DHT22;53791;50.696;4.396;2023-04-06T02:12:39;7.00;99.90
23100;DHT22;53791;50.696;4.396;2023-04-06T02:15:07;7.00;99.90
23100;DHT22;53791;50.696;4.396;2023-04-06T02:17:37;6.90;99.90
23100;DHT22;53791;50.696;4.396;2023-04-06T02:20:07;6.90;99.90
23100;DHT22;53791;50.696;4.396;2023-04-06T02:22:36;7.00;99.90
23100;DHT22;53791;50.696;4.396;2023-04-06T02:25:05;6.90;99.90
23100;DHT22;53791;50.696;4.396;2023-04-06T02:27:33;6.90;99.90
23100;DHT22;53791;50.696;4.396;2023-04-06T02:30:00;6.80;99.90
23100;DHT22;53791;50.696;4.396;2023-04-06T02:32:28;6.80;99.90
23100;DHT22;53791;50.696;4.396;2023-04-06T02:34:57;6.90;99.90
23100;DHT22;53791;50.696;4.396;2023-04-06T02:37:25;6.90;99.90
23100;DHT22;53791;50.696;4.396;2023-04-06T02:39:52;6.90;99.90
23100;DHT22;53791;50.696;4.396;2023-04-06T02:42:21;6.90;99.90
23100;DHT22;53791;50.696;4.396;2023-04-06T02:44:49;6.90;99.90
23100;DHT22;53791;50.696;4.396;2023-04-06T02:47:16;6.80;99.90
23100;DHT22;53791;50.696;4.396;2023-04-06T02:49:44;6.80;99.90
23100;DHT22;53791;50.696;4.396;2023-04-06T02:52:11;6.80;99.90
23100;DHT22;53791;50.696;4.396;2023-04-06T02:54:39;6.90;99.90
23100;DHT22;53791;50.696;4.396;2023-04-06T02:57:08;6.80;99.90
23100;DHT22;53791;50.696;4.396;2023-04-06T02:59:38;6.90;99.90
23100;DHT22;53791;50.696;4.396;2023-04-06T03:02:05;6.90;99.90
23100;DHT22;53791;50.696;4.396;2023-04-06T03:04:33;6.90;99.90
23100;DHT22;53791;50.696;4.396;2023-04-06T03:07:00;6.90;99.90
23100;DHT22;53791;50.696;4.396;2023-04-06T03:09:28;6.90;99.90
23100;DHT22;53791;50.696;4.396;2023-04-06T03:11:55;6.90;99.90
23100;DHT22;53791;50.696;4.396;2023-04-06T03:14:23;6.90;99.90
23100;DHT22;53791;50.696;4.396;2023-04-06T03:16:51;6.90;99.90
23100;DHT22;53791;50.696;4.396;2023-04-06T03:19:19;6.80;99.90
23100;DHT22;53791;50.696;4.396;2023-04-06T03:21:46;6.80;99.90
23100;DHT22;53791;50.696;4.396;2023-04-06T03:24:14;6.80;99.90
23100;DHT22;53791;50.696;4.396;2023-04-06T03:26:42;6.80;99.90
23100;DHT22;53791;50.696;4.396;2023-04-06T03:29:09;6.90;99.90
23100;DHT22;53791;50.696;4.396;2023-04-06T03:31:37;6.90;99.90
23100;DHT22;53791;50.696;4.396;2023-04-06T03:34:04;6.90;99.90
23100;DHT22;53791;50.696;4.396;2023-04-06T03:36:32;6.90;99.90
23100;DHT22;53791;50.696;4.396;2023-04-06T03:38:59;6.80;99.90
23100;DHT22;53791;50.696;4.396;2023-04-06T03:41:27;6.80;99.90
23100;DHT22;53791;50.696;4.396;2023-04-06T03:43:56;6.80;99.90
23100;DHT22;53791;50.696;4.396;2023-04-06T03:46:23;6.80;99.90
23100;DHT22;53791;50.696;4.396;2023-04-06T03:48:51;6.80;99.90
23100;DHT22;53791;50.696;4.396;2023-04-06T03:51:18;6.80;99.90
23100;DHT22;53791;50.696;4.396;2023-04-06T03:53:46;6.80;99.90
23100;DHT22;53791;50.696;4.396;2023-04-06T03:56:14;6.90;99.90
23100;DHT22;53791;50.696;4.396;2023-04-06T03:58:41;6.90;99.90
23100;DHT22;53791;50.696;4.396;2023-04-06T04:01:11;7.00;99.90
23100;DHT22;53791;50.696;4.396;2023-04-06T04:03:38;7.00;99.90
23100;DHT22;53791;50.696;4.396;2023-04-06T04:06:06;7.00;99.90
23100;DHT22;53791;50.696;4.396;2023-04-06T04:08:33;7.10;99.90
23100;DHT22;53791;50.696;4.396;2023-04-06T04:11:02;7.00;99.90
23100;DHT22;53791;50.696;4.396;2023-04-06T04:13:29;7.10;99.90
23100;DHT22;53791;50.696;4.396;2023-04-06T04:15:57;7.10;99.90
23100;DHT22;53791;50.696;4.396;2023-04-06T04:18:24;7.10;99.90
23100;DHT22;53791;50.696;4.396;2023-04-06T04:20:52;7.10;99.90
23100;DHT22;53791;50.696;4.396;2023-04-06T04:23:19;7.20;99.90
23100;DHT22;53791;50.696;4.396;2023-04-06T04:25:48;7.20;99.90
23100;DHT22;53791;50.696;4.396;2023-04-06T04:28:15;7.30;99.90
23100;DHT22;53791;50.696;4.396;2023-04-06T04:30:43;7.10;99.90
23100;DHT22;53791;50.696;4.396;2023-04-06T04:33:10;7.20;99.90
23100;DHT22;53791;50.696;4.396;2023-04-06T04:35:38;7.30;99.90
23100;DHT22;53791;50.696;4.396;2023-04-06T04:38:06;7.30;99.90
23100;DHT22;53791;50.696;4.396;2023-04-06T04:40:33;7.30;99.90
23100;DHT22;53791;50.696;4.396;2023-04-06T04:43:01;7.30;99.90
23100;DHT22;53791;50.696;4.396;2023-04-06T04:45:28;7.40;99.90
23100;DHT22;53791;50.696;4.396;2023-04-06T04:47:56;7.40;99.90
23100;DHT22;53791;50.696;4.396;2023-04-06T04:50:23;7.50;99.90
23100;DHT22;53791;50.696;4.396;2023-04-06T04:52:51;7.40;99.90
23100;DHT22;53791;50.696;4.396;2023-04-06T04:55:18;7.50;99.90
23100;DHT22;53791;50.696;4.396;2023-04-06T04:57:46;7.40;99.90
23100;DHT22;53791;50.696;4.396;2023-04-06T05:00:14;7.50;99.90
23100;DHT22;53791;50.696;4.396;2023-04-06T05:02:41;7.60;99.90
23100;DHT22;53791;50.696;4.396;2023-04-06T05:05:09;7.40;99.90
23100;DHT22;53791;50.696;4.396;2023-04-06T05:07:37;7.50;99.90
23100;DHT22;53791;50.696;4.396;2023-04-06T05:10:04;7.50;99.90
23100;DHT22;53791;50.696;4.396;2023-04-06T05:12:32;7.50;99.90
23100;DHT22;53791;50.696;4.396;2023-04-06T05:15:00;7.50;99.90
23100;DHT22;53791;50.696;4.396;2023-04-06T05:17:27;7.60;99.90
23100;DHT22;53791;50.696;4.396;2023-04-06T05:19:55;7.60;99.90
23100;DHT22;53791;50.696;4.396;2023-04-06T05:22:22;7.70;99.90
23100;DHT22;53791;50.696;4.396;2023-04-06T05:24:50;7.70;99.90
23100;DHT22;53791;50.696;4.396;2023-04-06T05:27:17;7.80;99.90
23100;DHT22;53791;50.696;4.396;2023-04-06T05:29:45;7.90;99.90
23100;DHT22;53791;50.696;4.396;2023-04-06T05:32:12;7.90;99.90
23100;DHT22;53791;50.696;4.396;2023-04-06T05:34:40;7.80;99.90
23100;DHT22;53791;50.696;4.396;2023-04-06T05:37:07;7.70;99.90
23100;DHT22;53791;50.696;4.396;2023-04-06T05:39:37;7.50;99.90
23100;DHT22;53791;50.696;4.396;2023-04-06T05:42:05;7.40;99.90
23100;DHT22;53791;50.696;4.396;2023-04-06T05:44:32;7.30;99.90
23100;DHT22;53791;50.696;4.396;2023-04-06T05:47:00;7.20;99.90
23100;DHT22;53791;50.696;4.396;2023-04-06T05:49:28;7.20;99.90
23100;DHT22;53791;50.696;4.396;2023-04-06T05:51:55;7.30;99.90
23100;DHT22;53791;50.696;4.396;2023-04-06T05:54:23;7.30;99.90
23100;DHT22;53791;50.696;4.396;2023-04-06T05:56:50;7.30;99.90
23100;DHT22;53791;50.696;4.396;2023-04-06T05:59:18;7.30;99.90
23100;DHT22;53791;50.696;4.396;2023-04-06T06:01:47;7.40;99.90
23100;DHT22;53791;50.696;4.396;2023-04-06T06:04:15;7.40;99.90
23100;DHT22;53791;50.696;4.396;2023-04-06T06:06:42;7.50;99.90
23100;DHT22;53791;50.696;4.396;2023-04-06T06:09:10;7.60;99.90
23100;DHT22;53791;50.696;4.396;2023-04-06T06:11:37;7.60;99.90
23100;DHT22;53791;50.696;4.396;2023-04-06T06:14:05;7.70;99.90
23100;DHT22;53791;50.696;4.396;2023-04-06T06:16:33;7.70;99.90
23100;DHT22;53791;50.696;4.396;2023-04-06T06:19:00;7.80;99.90
23100;DHT22;53791;50.696;4.396;2023-04-06T06:21:28;7.80;99.90
23100;DHT22;53791;50.696;4.396;2023-04-06T06:23:57;7.90;99.90
23100;DHT22;53791;50.696;4.396;2023-04-06T06:26:24;7.80;99.90
23100;DHT22;53791;50.696;4.396;2023-04-06T06:28:52;7.80;99.90
23100;DHT22;53791;50.696;4.396;2023-04-06T06:31:20;7.80;99.90
23100;DHT22;53791;50.696;4.396;2023-04-06T06:33:49;7.90;99.90
23100;DHT22;53791;50.696;4.396;2023-04-06T06:36:18;7.80;99.90
23100;DHT22;53791;50.696;4.396;2023-04-06T06:38:46;7.80;99.90
23100;DHT22;53791;50.696;4.396;2023-04-06T06:41:16;7.60;99.90
23100;DHT22;53791;50.696;4.396;2023-04-06T06:43:42;7.60;99.90
23100;DHT22;53791;50.696;4.396;2023-04-06T06:46:10;7.70;99.90
23100;DHT22;53791;50.696;4.396;2023-04-06T06:48:37;7.60;99.90
23100;DHT22;53791;50.696;4.396;2023-04-06T06:51:05;7.50;99.90
23100;DHT22;53791;50.696;4.396;2023-04-06T06:53:32;7.50;99.90
23100;DHT22;53791;50.696;4.396;2023-04-06T06:56:00;7.50;99.90
23100;DHT22;53791;50.696;4.396;2023-04-06T06:58:28;7.40;99.90
23100;DHT22;53791;50.696;4.396;2023-04-06T07:00:59;7.40;99.90
23100;DHT22;53791;50.696;4.396;2023-04-06T07:03:27;7.30;99.90
23100;DHT22;53791;50.696;4.396;2023-04-06T07:05:55;7.30;99.90
23100;DHT22;53791;50.696;4.396;2023-04-06T07:08:23;7.40;99.90
23100;DHT22;53791;50.696;4.396;2023-04-06T07:10:51;7.40;99.90
23100;DHT22;53791;50.696;4.396;2023-04-06T07:13:20;7.50;99.90
23100;DHT22;53791;50.696;4.396;2023-04-06T07:15:50;7.50;99.90
23100;DHT22;53791;50.696;4.396;2023-04-06T07:18:20;7.50;99.90
23100;DHT22;53791;50.696;4.396;2023-04-06T07:20:48;7.50;99.90
23100;DHT22;53791;50.696;4.396;2023-04-06T07:23:16;7.50;99.90
23100;DHT22;53791;50.696;4.396;2023-04-06T07:25:43;7.60;99.90
23100;DHT22;53791;50.696;4.396;2023-04-06T07:28:11;7.60;99.90
23100;DHT22;53791;50.696;4.396;2023-04-06T07:30:39;7.60;99.90
23100;DHT22;53791;50.696;4.396;2023-04-06T07:33:07;7.60;99.90
23100;DHT22;53791;50.696;4.396;2023-04-06T07:35:34;7.60;99.90
23100;DHT22;53791;50.696;4.396;2023-04-06T07:38:03;7.70;99.90
23100;DHT22;53791;50.696;4.396;2023-04-06T07:40:30;7.70;99.90
23100;DHT22;53791;50.696;4.396;2023-04-06T07:43:01;7.70;99.90
23100;DHT22;53791;50.696;4.396;2023-04-06T07:45:28;7.70;99.90
23100;DHT22;53791;50.696;4.396;2023-04-06T07:47:56;7.80;99.90
23100;DHT22;53791;50.696;4.396;2023-04-06T07:50:23;7.80;99.90
23100;DHT22;53791;50.696;4.396;2023-04-06T07:52:51;7.80;99.90
23100;DHT22;53791;50.696;4.396;2023-04-06T07:55:19;7.70;99.90
23100;DHT22;53791;50.696;4.396;2023-04-06T07:57:46;7.60;99.90
23100;DHT22;53791;50.696;4.396;2023-04-06T08:00:14;7.70;99.90
23100;DHT22;53791;50.696;4.396;2023-04-06T08:02:42;7.70;99.90
23100;DHT22;53791;50.696;4.396;2023-04-06T08:05:09;7.70;99.90
23100;DHT22;53791;50.696;4.396;2023-04-06T08:07:37;7.80;99.90
23100;DHT22;53791;50.696;4.396;2023-04-06T08:10:05;7.80;99.90
23100;DHT22;53791;50.696;4.396;2023-04-06T08:12:34;7.90;99.90
23100;DHT22;53791;50.696;4.396;2023-04-06T08:15:02;7.90;99.90
23100;DHT22;53791;50.696;4.396;2023-04-06T08:17:31;7.90;99.90
23100;DHT22;53791;50.696;4.396;2023-04-06T08:19:58;7.90;99.90
23100;DHT22;53791;50.696;4.396;2023-04-06T08:22:26;7.90;99.90
23100;DHT22;53791;50.696;4.396;2023-04-06T08:24:53;8.00;99.90
23100;DHT22;53791;50.696;4.396;2023-04-06T08:27:21;8.00;99.90
23100;DHT22;53791;50.696;4.396;2023-04-06T08:29:49;8.00;99.90
23100;DHT22;53791;50.696;4.396;2023-04-06T08:32:18;8.00;99.90
23100;DHT22;53791;50.696;4.396;2023-04-06T08:34:46;8.00;99.90
23100;DHT22;53791;50.696;4.396;2023-04-06T08:37:13;8.00;99.90
23100;DHT22;53791;50.696;4.396;2023-04-06T08:39:41;7.90;99.90
23100;DHT22;53791;50.696;4.396;2023-04-06T08:42:12;7.90;99.90
23100;DHT22;53791;50.696;4.396;2023-04-06T08:44:41;8.00;99.90
23100;DHT22;53791;50.696;4.396;2023-04-06T08:47:08;8.10;99.90
23100;DHT22;53791;50.696;4.396;2023-04-06T08:49:37;8.10;99.90
23100;DHT22;53791;50.696;4.396;2023-04-06T08:52:08;8.10;99.90
23100;DHT22;53791;50.696;4.396;2023-04-06T08:54:37;8.00;99.90
23100;DHT22;53791;50.696;4.396;2023-04-06T08:57:05;7.90;99.90
23100;DHT22;53791;50.696;4.396;2023-04-06T08:59:34;7.90;99.90
23100;DHT22;53791;50.696;4.396;2023-04-06T09:02:04;7.90;99.90
23100;DHT22;53791;50.696;4.396;2023-04-06T09:04:33;8.00;99.90
23100;DHT22;53791;50.696;4.396;2023-04-06T09:07:02;8.00;99.90
23100;DHT22;53791;50.696;4.396;2023-04-06T09:09:30;8.00;99.90
23100;DHT22;53791;50.696;4.396;2023-04-06T09:11:57;8.00;99.90
23100;DHT22;53791;50.696;4.396;2023-04-06T09:14:37;7.90;99.90
23100;DHT22;53791;50.696;4.396;2023-04-06T09:17:07;7.90;99.90
23100;DHT22;53791;50.696;4.396;2023-04-06T09:19:45;8.00;99.90
23100;DHT22;53791;50.696;4.396;2023-04-06T09:22:14;8.00;99.90
23100;DHT22;53791;50.696;4.396;2023-04-06T09:24:44;7.90;99.90
23100;DHT22;53791;50.696;4.396;2023-04-06T09:27:13;7.90;99.90
23100;DHT22;53791;50.696;4.396;2023-04-06T09:29:42;7.90;99.90
23100;DHT22;53791;50.696;4.396;2023-04-06T09:32:10;7.90;99.90
23100;DHT22;53791;50.696;4.396;2023-04-06T09:34:39;7.80;99.90
23100;DHT22;53791;50.696;4.396;2023-04-06T09:37:16;7.90;99.90
23100;DHT22;53791;50.696;4.396;2023-04-06T09:39:45;7.80;99.90
23100;DHT22;53791;50.696;4.396;2023-04-06T09:42:23;7.80;99.90
23100;DHT22;53791;50.696;4.396;2023-04-06T09:44:52;7.80;99.90
23100;DHT22;53791;50.696;4.396;2023-04-06T09:47:20;7.80;99.90
23100;DHT22;53791;50.696;4.396;2023-04-06T09:49:51;7.70;99.90
23100;DHT22;53791;50.696;4.396;2023-04-06T09:52:21;7.70;99.90
23100;DHT22;53791;50.696;4.396;2023-04-06T09:54:50;7.70;99.90
23100;DHT22;53791;50.696;4.396;2023-04-06T09:57:43;7.60;99.90
23100;DHT22;53791;50.696;4.396;2023-04-06T10:00:08;7.70;99.90
23100;DHT22;53791;50.696;4.396;2023-04-06T10:05:17;7.80;99.90
23100;DHT22;53791;50.696;4.396;2023-04-06T10:07:45;7.80;99.90
23100;DHT22;53791;50.696;4.396;2023-04-06T10:10:14;7.80;99.90
23100;DHT22;53791;50.696;4.396;2023-04-06T10:12:42;7.80;99.90
23100;DHT22;53791;50.696;4.396;2023-04-06T10:15:10;7.80;99.90
23100;DHT22;53791;50.696;4.396;2023-04-06T10:17:38;7.90;99.90
23100;DHT22;53791;50.696;4.396;2023-04-06T10:20:15;7.90;99.90
23100;DHT22;53791;50.696;4.396;2023-04-06T10:22:44;7.90;99.90
23100;DHT22;53791;50.696;4.396;2023-04-06T10:25:14;7.80;99.90
23100;DHT22;53791;50.696;4.396;2023-04-06T10:27:41;7.90;99.90
23100;DHT22;53791;50.696;4.396;2023-04-06T10:30:09;7.90;99.90
23100;DHT22;53791;50.696;4.396;2023-04-06T10:32:38;7.90;99.90
23100;DHT22;53791;50.696;4.396;2023-04-06T10:35:10;8.00;99.90
23100;DHT22;53791;50.696;4.396;2023-04-06T10:37:50;8.00;99.90
23100;DHT22;53791;50.696;4.396;2023-04-06T10:40:28;8.00;99.90
23100;DHT22;53791;50.696;4.396;2023-04-06T10:42:48;8.00;99.90
23100;DHT22;53791;50.696;4.396;2023-04-06T10:45:25;7.90;99.90
23100;DHT22;53791;50.696;4.396;2023-04-06T10:47:53;7.80;99.90
23100;DHT22;53791;50.696;4.396;2023-04-06T10:50:22;7.80;99.90
23100;DHT22;53791;50.696;4.396;2023-04-06T10:53:00;7.90;99.90
23100;DHT22;53791;50.696;4.396;2023-04-06T10:55:29;7.90;99.90
23100;DHT22;53791;50.696;4.396;2023-04-06T10:57:56;7.80;99.90
23100;DHT22;53791;50.696;4.396;2023-04-06T11:00:24;7.80;99.90
23100;DHT22;53791;50.696;4.396;2023-04-06T11:02:58;7.80;99.90
23100;DHT22;53791;50.696;4.396;2023-04-06T11:05:20;7.80;99.90
23100;DHT22;53791;50.696;4.396;2023-04-06T11:07:48;7.80;99.90
23100;DHT22;53791;50.696;4.396;2023-04-06T11:10:21;7.90;99.90
23100;DHT22;53791;50.696;4.396;2023-04-06T11:12:54;7.80;99.90
23100;DHT22;53791;50.696;4.396;2023-04-06T11:15:21;7.90;99.90
23100;DHT22;53791;50.696;4.396;2023-04-06T11:17:49;7.90;99.90
23100;DHT22;53791;50.696;4.396;2023-04-06T11:20:17;8.00;99.90
23100;DHT22;53791;50.696;4.396;2023-04-06T11:22:50;7.90;99.90
23100;DHT22;53791;50.696;4.396;2023-04-06T11:25:18;8.00;99.90
23100;DHT22;53791;50.696;4.396;2023-04-06T11:27:46;7.90;99.90
23100;DHT22;53791;50.696;4.396;2023-04-06T11:30:15;7.90;99.90
23100;DHT22;53791;50.696;4.396;2023-04-06T11:32:44;7.90;99.90
23100;DHT22;53791;50.696;4.396;2023-04-06T11:35:20;8.00;99.90
23100;DHT22;53791;50.696;4.396;2023-04-06T11:37:49;8.00;99.90
23100;DHT22;53791;50.696;4.396;2023-04-06T11:40:21;8.10;99.90
23100;DHT22;53791;50.696;4.396;2023-04-06T11:42:54;8.20;99.90
23100;DHT22;53791;50.696;4.396;2023-04-06T11:45:22;8.30;99.90
23100;DHT22;53791;50.696;4.396;2023-04-06T11:47:57;8.30;99.90
23100;DHT22;53791;50.696;4.396;2023-04-06T11:50:31;8.40;99.90
23100;DHT22;53791;50.696;4.396;2023-04-06T11:53:01;8.40;99.90
23100;DHT22;53791;50.696;4.396;2023-04-06T11:55:37;8.40;99.90
23100;DHT22;53791;50.696;4.396;2023-04-06T11:58:06;8.40;99.90
23100;DHT22;53791;50.696;4.396;2023-04-06T12:00:33;8.40;99.90
23100;DHT22;53791;50.696;4.396;2023-04-06T12:03:03;8.40;99.90
23100;DHT22;53791;50.696;4.396;2023-04-06T12:05:30;8.40;99.90
23100;DHT22;53791;50.696;4.396;2023-04-06T12:07:59;8.30;99.90
23100;DHT22;53791;50.696;4.396;2023-04-06T12:10:27;8.40;99.90
23100;DHT22;53791;50.696;4.396;2023-04-06T12:12:55;8.40;99.90
23100;DHT22;53791;50.696;4.396;2023-04-06T12:15:22;8.50;99.90
23100;DHT22;53791;50.696;4.396;2023-04-06T12:17:50;8.60;99.90
23100;DHT22;53791;50.696;4.396;2023-04-06T12:20:17;8.60;99.90
23100;DHT22;53791;50.696;4.396;2023-04-06T12:22:45;8.60;99.90
23100;DHT22;53791;50.696;4.396;2023-04-06T12:25:12;8.70;99.90
23100;DHT22;53791;50.696;4.396;2023-04-06T12:27:40;8.70;99.90
23100;DHT22;53791;50.696;4.396;2023-04-06T12:30:08;8.70;99.90
23100;DHT22;53791;50.696;4.396;2023-04-06T12:32:35;8.70;99.90
23100;DHT22;53791;50.696;4.396;2023-04-06T12:35:03;8.70;99.90
23100;DHT22;53791;50.696;4.396;2023-04-06T12:37:31;8.80;99.90
23100;DHT22;53791;50.696;4.396;2023-04-06T12:39:59;8.70;99.90
23100;DHT22;53791;50.696;4.396;2023-04-06T12:42:26;8.70;99.90
23100;DHT22;53791;50.696;4.396;2023-04-06T12:44:54;8.70;99.90
23100;DHT22;53791;50.696;4.396;2023-04-06T12:47:21;8.70;99.90
23100;DHT22;53791;50.696;4.396;2023-04-06T12:49:49;8.60;99.90
23100;DHT22;53791;50.696;4.396;2023-04-06T12:52:17;8.50;99.90
23100;DHT22;53791;50.696;4.396;2023-04-06T12:54:44;8.50;99.90
23100;DHT22;53791;50.696;4.396;2023-04-06T12:57:12;8.40;99.90
23100;DHT22;53791;50.696;4.396;2023-04-06T12:59:44;8.40;99.90
23100;DHT22;53791;50.696;4.396;2023-04-06T13:02:12;8.30;99.90
23100;DHT22;53791;50.696;4.396;2023-04-06T13:04:40;8.30;99.90
23100;DHT22;53791;50.696;4.396;2023-04-06T13:07:08;8.30;99.90
23100;DHT22;53791;50.696;4.396;2023-04-06T13:09:35;8.30;99.90
23100;DHT22;53791;50.696;4.396;2023-04-06T13:12:03;8.30;99.90
23100;DHT22;53791;50.696;4.396;2023-04-06T13:14:31;8.30;99.90
23100;DHT22;53791;50.696;4.396;2023-04-06T13:17:00;8.40;99.90
23100;DHT22;53791;50.696;4.396;2023-04-06T13:19:28;8.50;99.90
23100;DHT22;53791;50.696;4.396;2023-04-06T13:21:57;8.50;99.90
23100;DHT22;53791;50.696;4.396;2023-04-06T13:24:25;8.40;99.90
23100;DHT22;53791;50.696;4.396;2023-04-06T13:26:52;8.40;99.90
23100;DHT22;53791;50.696;4.396;2023-04-06T13:29:20;8.40;99.90
23100;DHT22;53791;50.696;4.396;2023-04-06T13:31:47;8.50;99.90
23100;DHT22;53791;50.696;4.396;2023-04-06T13:34:15;8.50;99.90
23100;DHT22;53791;50.696;4.396;2023-04-06T13:36:42;8.60;99.90
23100;DHT22;53791;50.696;4.396;2023-04-06T13:39:10;8.70;99.90
23100;DHT22;53791;50.696;4.396;2023-04-06T13:41:37;8.70;99.90
23100;DHT22;53791;50.696;4.396;2023-04-06T13:44:06;8.70;99.90
23100;DHT22;53791;50.696;4.396;2023-04-06T13:46:33;8.70;99.90
23100;DHT22;53791;50.696;4.396;2023-04-06T13:49:01;8.70;99.90
23100;DHT22;53791;50.696;4.396;2023-04-06T13:51:29;8.70;99.90
23100;DHT22;53791;50.696;4.396;2023-04-06T13:53:57;8.70;99.90
23100;DHT22;53791;50.696;4.396;2023-04-06T13:56:24;8.70;99.90
23100;DHT22;53791;50.696;4.396;2023-04-06T13:58:54;8.70;99.90
23100;DHT22;53791;50.696;4.396;2023-04-06T14:01:22;8.70;99.90
23100;DHT22;53791;50.696;4.396;2023-04-06T14:03:51;8.80;99.90
23100;DHT22;53791;50.696;4.396;2023-04-06T14:06:18;8.70;99.90
23100;DHT22;53791;50.696;4.396;2023-04-06T14:08:46;8.80;99.90
23100;DHT22;53791;50.696;4.396;2023-04-06T14:11:14;8.70;99.90
23100;DHT22;53791;50.696;4.396;2023-04-06T14:13:42;8.80;99.90
23100;DHT22;53791;50.696;4.396;2023-04-06T14:16:10;8.80;99.90
23100;DHT22;53791;50.696;4.396;2023-04-06T14:18:37;9.00;99.90
23100;DHT22;53791;50.696;4.396;2023-04-06T14:21:05;9.00;99.90
23100;DHT22;53791;50.696;4.396;2023-04-06T14:23:33;9.00;99.90
23100;DHT22;53791;50.696;4.396;2023-04-06T14:26:05;9.00;99.90
23100;DHT22;53791;50.696;4.396;2023-04-06T14:28:33;9.10;99.90
23100;DHT22;53791;50.696;4.396;2023-04-06T14:31:09;9.00;99.90
23100;DHT22;53791;50.696;4.396;2023-04-06T14:33:31;9.10;99.90
23100;DHT22;53791;50.696;4.396;2023-04-06T14:35:59;9.10;99.90
23100;DHT22;53791;50.696;4.396;2023-04-06T14:38:28;9.10;99.90
23100;DHT22;53791;50.696;4.396;2023-04-06T14:40:55;9.20;99.90
23100;DHT22;53791;50.696;4.396;2023-04-06T14:43:23;9.20;99.90
23100;DHT22;53791;50.696;4.396;2023-04-06T14:45:52;9.20;99.90
23100;DHT22;53791;50.696;4.396;2023-04-06T14:48:19;9.30;99.90
23100;DHT22;53791;50.696;4.396;2023-04-06T14:50:53;9.20;99.90
23100;DHT22;53791;50.696;4.396;2023-04-06T14:53:22;9.30;99.90
23100;DHT22;53791;50.696;4.396;2023-04-06T14:55:50;9.30;99.90
23100;DHT22;53791;50.696;4.396;2023-04-06T14:58:21;9.40;99.90
23100;DHT22;53791;50.696;4.396;2023-04-06T15:00:49;9.50;99.90
23100;DHT22;53791;50.696;4.396;2023-04-06T15:03:18;9.50;99.90
23100;DHT22;53791;50.696;4.396;2023-04-06T15:05:46;9.60;99.90
23100;DHT22;53791;50.696;4.396;2023-04-06T15:08:13;9.60;99.90
23100;DHT22;53791;50.696;4.396;2023-04-06T15:10:41;9.60;99.90
23100;DHT22;53791;50.696;4.396;2023-04-06T15:13:08;9.70;99.90
23100;DHT22;53791;50.696;4.396;2023-04-06T15:15:36;9.80;99.90
23100;DHT22;53791;50.696;4.396;2023-04-06T15:18:04;9.70;99.90
23100;DHT22;53791;50.696;4.396;2023-04-06T15:20:39;9.80;99.90
23100;DHT22;53791;50.696;4.396;2023-04-06T15:23:08;9.80;99.90
23100;DHT22;53791;50.696;4.396;2023-04-06T15:25:35;9.90;99.90
23100;DHT22;53791;50.696;4.396;2023-04-06T15:28:04;9.90;99.90
23100;DHT22;53791;50.696;4.396;2023-04-06T15:30:32;9.90;99.90
23100;DHT22;53791;50.696;4.396;2023-04-06T15:33:01;10.00;99.90
23100;DHT22;53791;50.696;4.396;2023-04-06T15:35:30;10.10;99.90
23100;DHT22;53791;50.696;4.396;2023-04-06T15:37:57;10.30;99.90
23100;DHT22;53791;50.696;4.396;2023-04-06T15:40:25;10.30;99.90
23100;DHT22;53791;50.696;4.396;2023-04-06T15:42:52;10.40;99.90
23100;DHT22;53791;50.696;4.396;2023-04-06T15:45:20;10.50;99.90
23100;DHT22;53791;50.696;4.396;2023-04-06T15:47:47;10.70;99.90
23100;DHT22;53791;50.696;4.396;2023-04-06T15:50:15;10.70;99.90
23100;DHT22;53791;50.696;4.396;2023-04-06T15:52:44;10.70;99.90
23100;DHT22;53791;50.696;4.396;2023-04-06T15:55:11;10.80;99.90